Algodones, New Mexico
Current Conditions -  °F | °C
As of 11:52 AM on Friday 21 Nov 2014 (Local Time) from KABQ Reporting Station
Overcast Overcast  
Wind Chill: 48°   Ceiling: 19000
Heat Index: 48°   Visibility: 10mi
Dew Point: 14°   Wind: 3mph
Humidity: 26%   Direction: 40°NE
Pressure: 30.06"   Gusts: NA
Location:  35.38°N, 106.48°W
Report Text: KABQ 211852Z 04003KT 10SM FEW150 BKN190 OVC250 09/M10 A3006 RMK AO2 SLP160 T00891100
Loading
Personal Weather Stations






























Interactive Weather Map New forecast layout! Learn more

10-Day Weather Forecast

Advertisements
Track Severe Weather on mobile